Time;durP1;ratioP1;P1;durP2;ratioP2;P2;SDS_P1;SDS_P2;PMS_P1;PMS_P2;Temp;Humidity;BMP_temperature;BMP_pressure;BME280_temperature;BME280_humidity;BME280_pressure;Samples;Min_cycle;Max_cycle;Signal;HPM_P1;HPM_P2
2022/01/18 00:01:28;;;;;;;54.05;10.73;;;;;;;1.53;100.00;103732.38;5092721;28;20466;-57
2022/01/18 00:03:54;;;;;;;63.95;11.60;;;;;;;1.10;100.00;103658.38;5092696;28;20028;-53
2022/01/18 00:06:20;;;;;;;47.42;10.75;;;;;;;1.51;100.00;103740.91;5093500;28;20106;-56
2022/01/18 00:08:45;;;;;;;46.95;9.45;;;;;;;1.45;100.00;103744.09;5074706;28;20032;-54
2022/01/18 00:11:11;;;;;;;63.20;11.38;;;;;;;1.46;100.00;103738.06;5074093;28;20035;-57
2022/01/18 00:13:40;;;;;;;52.83;9.90;;;;;;;1.47;100.00;103754.53;5092973;28;20028;-57
2022/01/18 00:18:34;;;;;;;58.00;10.68;;;;;;;1.07;100.00;103671.19;5092733;28;20044;-57
2022/01/18 00:23:26;;;;;;;48.88;9.48;;;;;;;1.38;100.00;103736.78;5093031;28;20040;-55
2022/01/18 00:25:55;;;;;;;47.40;9.05;;;;;;;1.50;100.00;103749.50;5092560;28;20036;-56
2022/01/18 00:28:22;;;;;;;52.22;10.48;;;;;;;1.36;100.00;103745.31;5092651;28;20406;-53
2022/01/18 00:35:56;;;;;;;41.20;9.10;;;;;;;1.02;100.00;103701.19;5074788;28;20043;-60
2022/01/18 00:38:31;;;;;;;47.40;9.80;;;;;;;1.35;100.00;103760.00;5091435;28;20036;-55
2022/01/18 00:40:58;;;;;;;45.08;8.85;;;;;;;1.31;100.00;103759.78;5092329;28;20047;-56
2022/01/18 00:43:23;;;;;;;53.83;10.07;;;;;;;1.36;100.00;103763.47;5092508;28;20440;-57
2022/01/18 00:45:48;;;;;;;56.72;10.00;;;;;;;1.30;100.00;103748.50;5092094;28;20537;-55
2022/01/18 00:48:14;;;;;;;68.15;10.77;;;;;;;1.17;100.00;103730.50;5074376;28;20041;-56
2022/01/18 00:50:39;;;;;;;47.03;9.98;;;;;;;0.94;100.00;103695.59;5092374;28;20036;-55
2022/01/18 00:53:10;;;;;;;69.43;10.13;;;;;;;1.37;100.00;103767.88;5092002;28;20032;-54
2022/01/18 00:55:46;;;;;;;50.65;10.35;;;;;;;1.36;100.00;103758.28;5092150;28;20115;-55
2022/01/18 00:58:12;;;;;;;97.90;11.85;;;;;;;1.23;100.00;103735.09;5092082;28;20046;-56
2022/01/18 01:00:37;;;;;;;102.43;12.25;;;;;;;1.35;100.00;103764.28;5092031;28;20479;-53
2022/01/18 01:03:03;;;;;;;77.90;12.52;;;;;;;1.35;100.00;103754.81;5074397;28;20024;-55
2022/01/18 01:05:29;;;;;;;72.25;12.68;;;;;;;1.32;100.00;103759.84;5092208;28;20039;-53
2022/01/18 01:07:54;;;;;;;84.22;12.98;;;;;;;1.37;100.00;103760.09;5091944;28;20048;-53
2022/01/18 01:10:19;;;;;;;77.30;13.38;;;;;;;1.37;100.00;103758.34;5091693;28;20042;-57
2022/01/18 01:12:45;;;;;;;88.50;13.02;;;;;;;1.36;100.00;103755.69;5091809;28;20462;-59
2022/01/18 01:15:13;;;;;;;73.75;13.13;;;;;;;0.85;100.00;103658.78;5091937;28;20032;-56
2022/01/18 01:17:51;;;;;;;77.03;11.18;;;;;;;1.23;100.00;103722.13;5091856;28;20032;-52
2022/01/18 01:34:35;;;;;;;46.75;8.60;;;;;;;1.80;100.00;103763.13;5080680;28;20050;-56
2022/01/18 01:42:25;;;;;;;65.40;9.57;;;;;;;1.52;100.00;103652.72;5080334;28;20043;-57
2022/01/18 01:44:51;;;;;;;55.97;11.18;;;;;;;1.30;100.00;103638.59;5080206;28;20118;-52
2022/01/18 01:47:20;;;;;;;47.90;10.38;;;;;;;1.83;100.00;103746.00;5095586;28;20552;-51
2022/01/18 01:49:49;;;;;;;45.72;10.15;;;;;;;1.38;100.00;103690.06;5095712;28;20036;-59
2022/01/18 01:52:16;;;;;;;60.58;10.80;;;;;;;1.12;100.00;103656.72;5078354;28;20021;-57
2022/01/18 01:54:41;;;;;;;53.25;10.82;;;;;;;1.54;100.00;103748.84;5095530;28;20052;-56
2022/01/18 01:57:07;;;;;;;41.72;9.63;;;;;;;1.46;100.00;103752.78;5095655;28;20077;-55
2022/01/18 01:59:33;;;;;;;46.75;10.43;;;;;;;1.40;100.00;103768.91;5077439;28;20501;-56
2022/01/18 02:01:58;;;;;;;87.05;11.85;;;;;;;1.35;100.00;103761.69;5095060;28;20040;-54
2022/01/18 02:04:24;;;;;;;50.78;11.00;;;;;;;1.17;100.00;103748.66;5095576;28;20032;-58
2022/01/18 02:06:49;;;;;;;74.55;11.13;;;;;;;1.24;100.00;103762.84;5095370;28;20074;-54
2022/01/18 02:09:15;;;;;;;90.43;12.57;;;;;;;1.20;100.00;103760.91;5095541;28;20436;-56
2022/01/18 02:11:41;;;;;;;74.38;12.65;;;;;;;1.15;100.00;103755.47;5060562;28;20039;-57
2022/01/18 02:14:12;;;;;;;64.60;11.90;;;;;;;1.12;100.00;103764.00;5095211;28;20032;-52
2022/01/18 02:22:06;;;;;;;50.33;12.15;;;;;;;0.66;100.00;103678.50;5095088;28;20113;-57
2022/01/18 02:24:31;;;;;;;55.38;11.80;;;;;;;1.05;100.00;103743.72;5095148;28;20360;-53
2022/01/18 02:26:57;;;;;;;59.90;11.57;;;;;;;0.60;100.00;103679.06;5095012;28;20032;-55
2022/01/18 02:29:22;;;;;;;63.83;11.90;;;;;;;1.00;100.00;103752.06;5077165;28;20047;-56
2022/01/18 02:31:48;;;;;;;59.72;11.57;;;;;;;0.57;100.00;103674.63;5076940;28;20066;-53
2022/01/18 02:34:17;;;;;;;80.15;12.52;;;;;;;0.92;100.00;103743.91;5075916;28;20024;-57
2022/01/18 02:36:42;;;;;;;60.58;11.63;;;;;;;0.91;100.00;103741.22;5095089;28;20387;-56
2022/01/18 02:39:09;;;;;;;76.32;11.70;;;;;;;0.95;100.00;103746.66;5076681;28;20043;-54
2022/01/18 02:41:35;;;;;;;53.75;11.07;;;;;;;0.50;100.00;103654.34;5076553;28;20044;-54
2022/01/18 02:44:10;;;;;;;68.78;11.95;;;;;;;0.53;100.00;103672.66;5076711;28;20030;-56
2022/01/18 02:46:35;;;;;;;53.25;11.00;;;;;;;0.96;100.00;103743.22;5094856;28;20034;-59
2022/01/18 02:49:02;;;;;;;60.33;12.05;;;;;;;0.88;100.00;103733.25;5094670;28;20395;-57
2022/01/18 02:51:27;;;;;;;57.55;12.32;;;;;;;0.41;100.00;103643.50;5094546;28;20032;-57
2022/01/18 02:54:04;;;;;;;56.13;12.27;;;;;;;0.58;100.00;103675.53;5094409;28;20427;-55
2022/01/18 02:56:42;;;;;;;51.83;11.35;;;;;;;0.49;100.00;103657.78;5094508;28;20228;-55
2022/01/18 02:59:31;;;;;;;57.50;11.82;;;;;;;0.73;100.00;103693.59;5094287;28;20077;-56
2022/01/18 03:04:48;;;;;;;65.00;11.80;;;;;;;1.05;100.00;103748.03;5078929;28;20058;-53
2022/01/18 03:07:14;;;;;;;37.35;10.40;;;;;;;0.55;100.00;103650.31;5094641;28;20028;-58
2022/01/18 03:09:40;;;;;;;41.30;10.63;;;;;;;0.72;100.00;103686.59;5094347;28;20528;-53
2022/01/18 03:12:07;;;;;;;49.05;10.68;;;;;;;1.07;100.00;103736.03;5093028;28;20066;-58
2022/01/18 03:14:34;;;;;;;38.92;9.25;;;;;;;0.76;100.00;103688.56;5092773;28;20028;-60
2022/01/18 03:16:59;;;;;;;34.13;9.32;;;;;;;1.17;100.00;103748.66;5093994;28;20487;-56
2022/01/18 03:19:25;;;;;;;28.83;9.38;;;;;;;0.69;100.00;103658.81;5094250;28;20490;-56
2022/01/18 03:21:51;;;;;;;38.03;9.57;;;;;;;1.20;100.00;103741.03;5093929;28;20032;-56
2022/01/18 03:29:36;;;;;;;36.35;8.18;;;;;;;0.90;100.00;103691.06;5094259;28;20039;-58
2022/01/18 03:32:02;;;;;;;33.70;8.18;;;;;;;0.82;100.00;103678.47;5093979;28;20036;-54
2022/01/18 03:34:27;;;;;;;27.02;8.77;;;;;;;0.82;100.00;103679.38;5075842;28;20111;-56
2022/01/18 03:36:53;;;;;;;28.17;8.52;;;;;;;1.24;100.00;103758.56;5093597;28;20104;-54
2022/01/18 03:39:19;;;;;;;25.75;8.43;;;;;;;1.11;100.00;103719.78;5093652;28;20036;-58
2022/01/18 03:41:51;;;;;;;33.25;7.93;;;;;;;1.25;100.00;103749.06;5093372;28;20501;-56
2022/01/18 03:44:18;;;;;;;30.00;7.63;;;;;;;1.21;100.00;103747.13;5093736;28;20050;-58
2022/01/18 03:46:43;;;;;;;32.50;8.18;;;;;;;0.81;100.00;103677.63;5093437;28;20028;-52
2022/01/18 03:49:09;;;;;;;27.20;7.68;;;;;;;0.77;100.00;103677.34;5093428;28;20032;-57
2022/01/18 03:51:34;;;;;;;40.47;7.43;;;;;;;1.20;100.00;103755.72;5075299;28;20119;-56
2022/01/18 03:53:59;;;;;;;23.52;7.30;;;;;;;1.19;100.00;103756.53;5093073;28;20059;-55
2022/01/18 03:56:25;;;;;;;26.40;7.22;;;;;;;0.71;100.00;103670.16;5093205;28;20043;-54
2022/01/18 03:58:50;;;;;;;23.48;6.90;;;;;;;1.15;100.00;103758.06;5093386;28;20028;-55
2022/01/18 04:01:16;;;;;;;33.80;7.75;;;;;;;0.63;100.00;103655.91;5075257;28;20047;-58
2022/01/18 04:03:41;;;;;;;26.98;7.18;;;;;;;0.65;100.00;103671.53;5093591;28;20374;-56
2022/01/18 04:06:07;;;;;;;32.47;7.50;;;;;;;1.18;100.00;103759.94;5093130;28;20036;-53
2022/01/18 04:08:33;;;;;;;20.33;6.60;;;;;;;1.14;100.00;103754.56;5093188;28;20395;-54
2022/01/18 04:10:58;;;;;;;24.77;7.10;;;;;;;1.21;100.00;103775.66;5092961;28;20038;-54
2022/01/18 04:13:23;;;;;;;20.08;6.72;;;;;;;1.21;100.00;103765.28;5093041;28;20036;-54
2022/01/18 04:15:49;;;;;;;18.05;7.13;;;;;;;1.14;100.00;103744.19;5093083;28;20077;-57
2022/01/18 04:28:49;;;;;;;19.02;6.32;;;;;;;1.26;100.00;103792.34;5092993;28;20180;-53
2022/01/18 04:31:14;;;;;;;23.70;6.90;;;;;;;0.70;100.00;103683.06;5074596;28;20043;-52
2022/01/18 04:33:40;;;;;;;42.40;8.00;;;;;;;1.22;100.00;103773.16;5092792;28;20028;-54
2022/01/18 04:36:06;;;;;;;26.98;6.63;;;;;;;0.83;100.00;103713.97;5092567;28;20093;-56
2022/01/18 04:38:32;;;;;;;27.08;7.18;;;;;;;1.21;100.00;103775.66;5074861;28;20365;-55
2022/01/18 04:41:04;;;;;;;20.02;6.28;;;;;;;1.20;100.00;103779.94;5092533;28;20039;-54
2022/01/18 04:48:48;;;;;;;37.95;7.05;;;;;;;0.83;100.00;103712.28;5092551;28;20047;-56
2022/01/18 04:51:14;;;;;;;34.80;7.15;;;;;;;0.88;100.00;103716.00;5092592;28;20032;-58
2022/01/18 04:53:51;;;;;;;21.30;6.15;;;;;;;0.73;100.00;103689.25;5092530;28;20055;-54
2022/01/18 04:56:19;;;;;;;21.52;6.05;;;;;;;0.81;100.00;103700.06;5075041;28;20471;-53
2022/01/18 04:58:45;;;;;;;24.55;6.50;;;;;;;1.26;100.00;103774.19;5074084;28;20115;-55
2022/01/18 05:01:11;;;;;;;21.00;5.65;;;;;;;1.27;100.00;103774.28;5074095;28;20119;-54
2022/01/18 05:03:37;;;;;;;24.35;6.63;;;;;;;1.24;100.00;103778.41;5092543;28;20055;-56
2022/01/18 05:06:09;;;;;;;32.00;6.28;;;;;;;1.30;100.00;103776.13;5074096;28;20059;-58
2022/01/18 05:08:37;;;;;;;39.58;7.15;;;;;;;1.22;100.00;103757.59;5074898;28;20440;-59
2022/01/18 05:11:04;;;;;;;18.13;6.32;;;;;;;0.86;100.00;103699.50;5092305;28;20032;-52
2022/01/18 05:16:23;;;;;;;29.30;7.38;;;;;;;0.93;100.00;103698.13;5092172;28;20535;-57
2022/01/18 05:23:52;;;;;;;27.67;6.90;;;;;;;1.08;100.00;103717.94;5073966;28;20068;-56
2022/01/18 05:26:18;;;;;;;39.90;8.68;;;;;;;1.41;100.00;103772.38;5092075;28;20063;-53
2022/01/18 05:28:43;;;;;;;29.98;7.72;;;;;;;1.32;100.00;103754.63;5092292;28;20399;-58
2022/01/18 05:31:09;;;;;;;42.97;8.30;;;;;;;1.42;100.00;103774.19;5092042;28;20036;-54
2022/01/18 05:33:34;;;;;;;30.35;7.25;;;;;;;1.41;100.00;103778.47;5073999;28;20124;-55
2022/01/18 05:35:59;;;;;;;42.72;8.48;;;;;;;1.42;100.00;103772.47;5092013;28;20457;-54
2022/01/18 05:38:25;;;;;;;44.53;8.40;;;;;;;1.42;100.00;103766.41;5091952;28;20380;-56
2022/01/18 05:40:50;;;;;;;59.85;10.07;;;;;;;1.42;100.00;103769.00;5091794;28;20054;-56
2022/01/18 05:43:17;;;;;;;51.95;10.48;;;;;;;1.20;100.00;103724.59;5074252;28;20036;-55
2022/01/18 05:45:42;;;;;;;65.35;11.75;;;;;;;1.05;100.00;103703.94;5090539;28;20111;-52
2022/01/18 05:48:07;;;;;;;59.30;11.75;;;;;;;1.49;100.00;103794.47;5091982;28;20178;-57
2022/01/18 05:50:33;;;;;;;68.68;12.82;;;;;;;1.45;100.00;103764.84;5091870;28;20165;-55
2022/01/18 05:52:58;;;;;;;65.13;12.65;;;;;;;1.40;100.00;103749.88;5091631;28;20047;-55
2022/01/18 05:55:24;;;;;;;42.17;10.52;;;;;;;1.07;100.00;103697.13;5092083;28;20546;-57
2022/01/18 05:57:49;;;;;;;57.65;10.80;;;;;;;1.52;100.00;103786.81;5091704;28;20418;-56
2022/01/18 06:00:21;;;;;;;51.03;10.43;;;;;;;1.50;100.00;103815.28;5091938;28;20032;-51
2022/01/18 06:08:04;;;;;;;87.53;12.27;;;;;;;0.96;100.00;103680.13;5091991;28;20073;-57
2022/01/18 06:10:30;;;;;;;58.95;11.93;;;;;;;1.01;100.00;103684.72;5094630;28;20036;-56
2022/01/18 06:12:55;;;;;;;58.80;11.55;;;;;;;1.06;100.00;103690.13;5095262;28;20024;-58
2022/01/18 06:15:20;;;;;;;45.42;10.82;;;;;;;1.00;100.00;103687.22;5095181;28;20036;-55
2022/01/18 06:17:46;;;;;;;48.67;10.75;;;;;;;1.02;100.00;103680.44;5094953;28;20048;-52
2022/01/18 06:20:12;;;;;;;52.15;11.05;;;;;;;1.46;100.00;103756.22;5076895;28;20034;-56
2022/01/18 06:22:37;;;;;;;60.58;14.52;;;;;;;1.50;100.00;103770.28;5076985;28;20039;-53
2022/01/18 06:25:04;;;;;;;61.83;14.05;;;;;;;0.99;100.00;103675.09;5094838;28;20040;-58
2022/01/18 06:27:30;;;;;;;71.32;13.65;;;;;;;0.98;100.00;103675.88;5095066;28;20044;-58
2022/01/18 06:29:55;;;;;;;47.92;12.88;;;;;;;1.22;100.00;103722.97;5094993;28;20035;-53
2022/01/18 06:32:21;;;;;;;60.28;13.68;;;;;;;1.48;100.00;103782.28;5094892;28;20426;-53
2022/01/18 06:34:46;;;;;;;60.00;14.55;;;;;;;1.47;100.00;103770.09;5094587;28;20039;-52
2022/01/18 06:37:12;;;;;;;54.33;13.70;;;;;;;1.02;100.00;103701.19;5094863;28;20085;-59
2022/01/18 06:39:37;;;;;;;58.85;13.68;;;;;;;1.39;100.00;103776.63;5094755;28;20081;-56
2022/01/18 06:42:03;;;;;;;66.63;13.18;;;;;;;1.34;100.00;103765.13;5094569;28;20101;-56
2022/01/18 06:44:29;;;;;;;42.15;11.90;;;;;;;1.30;100.00;103777.03;5076486;28;20119;-55
2022/01/18 06:46:54;;;;;;;47.45;12.02;;;;;;;1.24;100.00;103779.31;5094580;28;20106;-56
2022/01/18 06:49:19;;;;;;;77.15;14.55;;;;;;;0.64;100.00;103678.44;5094348;28;20089;-53
2022/01/18 06:51:45;;;;;;;38.03;12.00;;;;;;;1.19;100.00;103766.91;5094716;28;20051;-60
2022/01/18 06:54:15;;;;;;;39.78;11.93;;;;;;;1.16;100.00;103766.75;5094623;28;20569;-54
2022/01/18 06:56:46;;;;;;;36.60;11.73;;;;;;;0.69;100.00;103682.16;5094491;28;20482;-57
2022/01/18 06:59:12;;;;;;;55.05;13.45;;;;;;;0.74;100.00;103690.16;5094403;28;20036;-58
2022/01/18 07:01:37;;;;;;;62.58;13.60;;;;;;;1.23;100.00;103781.81;5094558;28;20459;-56
2022/01/18 07:04:03;;;;;;;76.22;14.27;;;;;;;1.26;100.00;103776.78;5075971;28;20436;-55
2022/01/18 07:06:28;;;;;;;40.42;13.30;;;;;;;1.30;100.00;103778.72;5076331;28;20040;-53
2022/01/18 07:08:54;;;;;;;78.55;17.13;;;;;;;0.83;100.00;103690.66;5076183;28;20078;-58
2022/01/18 07:11:20;;;;;;;59.40;15.00;;;;;;;1.25;100.00;103760.34;5076026;28;20082;-57
2022/01/18 07:13:45;;;;;;;67.05;16.83;;;;;;;1.35;100.00;103790.22;5075906;28;20403;-55
2022/01/18 07:16:11;;;;;;;81.93;18.67;;;;;;;1.39;100.00;103787.00;5094055;28;20119;-59
2022/01/18 07:18:36;;;;;;;71.13;17.92;;;;;;;1.40;100.00;103788.78;5093829;28;20105;-55
2022/01/18 07:21:01;;;;;;;75.80;18.25;;;;;;;1.31;100.00;103762.38;5092847;28;20032;-60
2022/01/18 07:23:27;;;;;;;102.25;19.92;;;;;;;0.78;100.00;103672.28;5093481;28;20035;-58
2022/01/18 07:25:53;;;;;;;58.88;16.80;;;;;;;1.01;100.00;103722.75;5092848;28;20032;-54
2022/01/18 07:28:19;;;;;;;80.82;17.92;;;;;;;1.41;100.00;103781.06;5093659;28;20486;-56
2022/01/18 07:30:46;;;;;;;74.10;17.58;;;;;;;1.03;100.00;103723.69;5093110;28;20609;-57
2022/01/18 07:33:14;;;;;;;55.63;15.82;;;;;;;1.39;100.00;103784.41;5075286;28;20436;-56
2022/01/18 07:35:40;;;;;;;70.70;15.63;;;;;;;0.99;100.00;103696.72;5093554;28;20387;-58
2022/01/18 07:38:06;;;;;;;75.22;15.63;;;;;;;1.49;100.00;103787.53;5092217;28;20036;-56
2022/01/18 07:40:33;;;;;;;37.05;10.60;;;;;;;1.54;100.00;103786.09;5093685;28;20360;-56
2022/01/18 07:43:01;;;;;;;38.97;10.77;;;;;;;1.58;100.00;103788.00;5074552;28;20032;-53
2022/01/18 07:45:30;;;;;;;41.22;11.05;;;;;;;1.65;100.00;103799.63;5055154;28;20407;-56
2022/01/18 07:47:55;;;;;;;47.67;11.07;;;;;;;1.22;100.00;103707.41;5055548;28;20039;-56
2022/01/18 07:50:21;;;;;;;50.22;10.27;;;;;;;1.73;100.00;103806.06;5073082;28;20032;-57
2022/01/18 07:52:46;;;;;;;54.83;11.02;;;;;;;1.35;100.00;103725.34;5072987;28;20040;-55
2022/01/18 07:55:12;;;;;;;37.92;10.93;;;;;;;1.79;100.00;103800.28;5072834;28;20052;-52
2022/01/18 07:57:41;;;;;;;56.17;12.30;;;;;;;1.81;100.00;103802.16;5073007;28;20381;-54
2022/01/18 08:00:17;;;;;;;49.50;12.52;;;;;;;1.83;100.00;103807.44;5073259;28;20037;-57
2022/01/18 08:02:43;;;;;;;39.22;9.98;;;;;;;1.38;100.00;103709.94;5054943;28;20033;-58
2022/01/18 08:05:09;;;;;;;40.30;11.93;;;;;;;1.84;100.00;103785.88;5064216;28;20086;-56
2022/01/18 08:07:35;;;;;;;30.25;10.38;;;;;;;1.99;100.00;103805.69;5092755;28;20040;-58
2022/01/18 08:10:01;;;;;;;48.15;12.90;;;;;;;1.93;100.00;103788.88;5065946;28;20041;-56
2022/01/18 08:12:27;;;;;;;31.58;9.95;;;;;;;2.09;100.00;103794.94;5073085;28;20028;-53
2022/01/18 08:14:59;;;;;;;27.13;11.80;;;;;;;1.99;100.00;103766.72;5092640;28;20109;-56
2022/01/18 08:17:24;;;;;;;33.33;10.30;;;;;;;2.29;100.00;103795.91;5093044;28;20130;-54
2022/01/18 08:19:50;;;;;;;29.73;9.90;;;;;;;2.15;100.00;103757.97;5091634;28;20111;-55
2022/01/18 08:22:17;;;;;;;23.05;9.27;;;;;;;2.42;100.00;103800.88;5087181;28;20035;-53
2022/01/18 08:24:43;;;;;;;23.70;9.57;;;;;;;2.46;100.00;103795.00;5077258;28;20579;-57
2022/01/18 08:27:08;;;;;;;29.58;10.05;;;;;;;2.49;100.00;103802.94;5054398;28;20064;-55
2022/01/18 08:29:35;;;;;;;22.75;9.90;;;;;;;2.01;100.00;103702.75;5053718;28;20590;-56
2022/01/18 08:32:00;;;;;;;35.10;10.15;;;;;;;2.11;100.00;103711.84;5071634;28;20071;-57
2022/01/18 08:34:26;;;;;;;45.67;11.40;;;;;;;2.60;100.00;103785.22;5072179;28;20060;-54
2022/01/18 08:36:51;;;;;;;66.47;14.38;;;;;;;2.75;100.00;103822.38;5072240;28;20535;-58
2022/01/18 08:39:17;;;;;;;39.55;12.10;;;;;;;2.77;100.00;103784.34;5072262;28;20041;-56
2022/01/18 08:41:43;;;;;;;39.70;11.55;;;;;;;2.78;100.00;103778.28;5072222;28;20035;-55
2022/01/18 08:44:09;;;;;;;36.30;11.27;;;;;;;2.93;100.00;103797.22;5054167;28;20040;-54
2022/01/18 08:46:34;;;;;;;37.35;11.93;;;;;;;2.98;100.00;103816.50;5054427;28;20036;-57
2022/01/18 08:48:59;;;;;;;34.75;13.05;;;;;;;2.59;100.00;103736.66;5072431;28;20040;-52
2022/01/18 08:51:26;;;;;;;82.18;17.48;;;;;;;3.09;100.00;103817.03;5054402;28;20047;-56
2022/01/18 08:53:51;;;;;;;49.80;15.20;;;;;;;2.99;100.00;103801.81;5054198;28;20092;-57
2022/01/18 08:56:17;;;;;;;70.35;16.70;;;;;;;2.76;100.00;103752.22;5054492;28;20144;-59
2022/01/18 08:58:44;;;;;;;57.17;17.65;;;;;;;3.14;100.00;103833.72;5054528;28;20068;-56
2022/01/18 09:01:10;;;;;;;63.38;17.98;;;;;;;3.17;100.00;103813.94;5072042;28;20511;-52
2022/01/18 09:03:35;;;;;;;54.58;17.55;;;;;;;3.17;100.00;103816.53;5054355;28;20035;-54
2022/01/18 09:06:03;;;;;;;92.40;21.27;;;;;;;3.20;100.00;103816.69;5072032;28;20033;-59
2022/01/18 09:08:28;;;;;;;70.57;19.88;;;;;;;2.79;100.00;103741.06;5072095;28;20089;-54
2022/01/18 09:10:54;;;;;;;74.20;18.98;;;;;;;3.26;100.00;103809.16;5071079;28;20115;-55
2022/01/18 09:13:22;;;;;;;96.28;20.88;;;;;;;3.22;100.00;103801.13;5072075;28;20043;-57
2022/01/18 09:15:47;;;;;;;141.43;24.40;;;;;;;2.84;100.00;103722.25;5072378;28;20028;-56
2022/01/18 09:18:12;;;;;;;96.20;24.40;;;;;;;3.39;100.00;103815.78;5072081;28;20082;-55
2022/01/18 09:20:39;;;;;;;116.82;23.08;;;;;;;3.45;100.00;103816.03;5071813;28;20033;-56
2022/01/18 09:23:04;;;;;;;106.97;23.48;;;;;;;3.33;100.00;103784.25;5071730;28;20072;-54
2022/01/18 09:25:30;;;;;;;74.18;21.05;;;;;;;3.09;100.00;103732.03;5071645;28;20063;-57
2022/01/18 09:27:57;;;;;;;100.85;23.25;;;;;;;3.07;100.00;103717.16;5054102;28;20082;-54
2022/01/18 09:30:26;;;;;;;80.85;21.65;;;;;;;3.69;100.00;103819.72;5071785;28;20033;-55
2022/01/18 09:32:52;;;;;;;63.38;20.90;;;;;;;3.74;100.00;103812.09;5071831;28;20454;-56
2022/01/18 09:35:18;;;;;;;131.63;28.35;;;;;;;3.44;100.00;103754.41;5071875;28;20442;-57
2022/01/18 09:37:44;;;;;;;98.90;22.02;;;;;;;3.82;100.00;103810.72;5053980;28;20033;-57
2022/01/18 09:40:10;;;;;;;56.60;16.98;;;;;;;3.92;100.00;103836.34;5053994;28;20029;-55
2022/01/18 09:42:41;;;;;;;64.57;17.70;;;;;;;3.80;100.00;103802.81;5053955;28;20034;-54
2022/01/18 09:45:09;;;;;;;66.72;18.83;;;;;;;3.90;100.00;103811.94;5075707;28;20036;-57
2022/01/18 09:47:36;;;;;;;101.13;20.92;;;;;;;3.42;100.00;103741.28;5075485;28;20035;-54
2022/01/18 09:50:03;;;;;;;58.83;18.35;;;;;;;3.94;100.00;103819.94;5075179;28;20032;-53
2022/01/18 09:52:29;;;;;;;69.30;20.48;;;;;;;3.89;100.00;103810.16;5057612;28;20115;-54
2022/01/18 09:54:54;;;;;;;90.03;19.45;;;;;;;3.74;100.00;103768.69;5075262;28;20141;-58
2022/01/18 09:57:19;;;;;;;84.47;20.27;;;;;;;3.26;100.00;103672.91;5075293;28;20043;-55
2022/01/18 09:59:45;;;;;;;101.53;24.10;;;;;;;4.12;100.00;103824.13;5057223;28;20036;-57
2022/01/18 10:02:10;;;;;;;145.82;25.50;;;;;;;4.17;100.00;103820.00;5057172;28;20055;-55
2022/01/18 10:04:40;;;;;;;114.00;25.50;;;;;;;4.19;100.00;103829.69;5075119;28;20064;-56
2022/01/18 10:07:05;;;;;;;150.13;27.65;;;;;;;3.75;100.00;103754.84;5057158;28;20028;-52
2022/01/18 10:09:31;;;;;;;105.40;27.02;;;;;;;3.70;100.00;103740.75;5074973;28;20055;-55
2022/01/18 10:12:10;;;;;;;178.23;27.92;;;;;;;4.18;100.00;103829.59;5075092;28;20029;-58
2022/01/18 10:14:38;;;;;;;190.73;30.58;;;;;;;4.00;100.00;103790.63;5075154;28;20400;-55
2022/01/18 10:17:04;;;;;;;133.68;28.70;;;;;;;4.23;100.00;103817.66;5074947;28;20032;-55
2022/01/18 10:19:38;;;;;;;158.32;29.90;;;;;;;3.89;100.00;103753.72;5074859;28;20025;-51
2022/01/18 10:22:08;;;;;;;96.55;27.10;;;;;;;3.96;100.00;103749.66;5074943;28;20040;-55
2022/01/18 10:24:34;;;;;;;163.32;31.83;;;;;;;4.03;100.00;103748.19;5057225;28;20082;-55
2022/01/18 10:26:59;;;;;;;194.80;33.72;;;;;;;4.42;100.00;103814.94;5075148;28;20040;-58
2022/01/18 10:29:28;;;;;;;139.57;30.30;;;;;;;4.05;100.00;103734.38;5074764;28;20033;-51
2022/01/18 10:36:59;;;;;;;145.55;31.02;;;;;;;4.25;100.00;103753.41;5056526;28;20052;-55
2022/01/18 10:39:27;;;;;;;202.40;33.42;;;;;;;4.58;100.00;103814.75;5074700;28;20040;-56
2022/01/18 10:41:52;;;;;;;158.45;33.38;;;;;;;4.59;100.00;103824.34;5074376;28;20116;-53
2022/01/18 10:44:19;;;;;;;195.73;34.08;;;;;;;4.15;100.00;103719.97;5074189;28;20107;-55
2022/01/18 10:46:48;;;;;;;204.00;37.30;;;;;;;4.65;100.00;103797.59;5074334;28;20108;-52
2022/01/18 10:49:36;;;;;;;190.52;36.70;;;;;;;4.70;100.00;103815.19;5074572;28;20085;-58
2022/01/18 10:52:08;;;;;;;141.50;36.28;;;;;;;4.76;100.00;103825.03;5074569;28;20463;-54
2022/01/18 10:54:46;;;;;;;188.80;40.08;;;;;;;4.30;100.00;103731.91;5073039;28;20053;-55
2022/01/18 10:57:18;;;;;;;149.73;34.75;;;;;;;4.40;100.00;103741.00;5056149;28;20461;-54
2022/01/18 10:59:44;;;;;;;241.82;39.17;;;;;;;4.75;100.00;103813.69;5072590;28;20442;-57
2022/01/18 11:02:17;;;;;;;177.98;36.30;;;;;;;4.72;100.00;103815.28;5058376;28;20036;-53
2022/01/18 11:04:46;;;;;;;220.48;35.97;;;;;;;4.77;100.00;103809.41;5077167;28;20035;-57
2022/01/18 11:07:12;;;;;;;183.40;31.48;;;;;;;4.76;100.00;103796.31;5089103;28;20028;-57
2022/01/18 11:09:38;;;;;;;146.35;31.45;;;;;;;4.46;100.00;103726.47;5047453;28;20035;-51
2022/01/18 11:12:05;;;;;;;183.93;32.88;;;;;;;4.92;100.00;103785.59;5075798;28;20070;-55
2022/01/18 11:14:32;;;;;;;159.05;26.98;;;;;;;4.57;100.00;103737.31;5059895;28;20182;-56
2022/01/18 11:16:58;;;;;;;152.73;27.25;;;;;;;4.90;100.00;103801.19;5075344;28;20138;-57
2022/01/18 11:21:51;;;;;;;173.15;28.75;;;;;;;4.47;100.00;103709.97;5083484;28;20059;-57
2022/01/18 11:24:18;;;;;;;112.78;23.67;;;;;;;4.55;100.00;103724.19;5069136;28;20498;-56
2022/01/18 11:26:45;;;;;;;123.25;27.20;;;;;;;4.59;100.00;103725.19;5076802;28;20032;-56
2022/01/18 11:29:16;;;;;;;96.32;24.75;;;;;;;4.59;100.00;103717.38;5087908;28;20074;-55
2022/01/18 11:31:50;;;;;;;153.02;31.25;;;;;;;4.48;100.00;103697.81;5072556;28;20024;-53
2022/01/18 11:34:45;;;;;;;130.68;28.73;;;;;;;4.58;100.00;103705.19;5073360;28;20024;-57
2022/01/18 11:37:35;;;;;;;102.07;28.73;;;;;;;5.08;100.00;103783.63;5055567;28;20036;-55
2022/01/18 11:40:05;;;;;;;110.80;31.45;;;;;;;4.76;100.00;103728.47;5073244;28;20025;-58
2022/01/18 11:42:56;;;;;;;120.82;31.33;;;;;;;5.20;100.00;103777.06;5073275;28;20040;-57
2022/01/18 11:45:24;;;;;;;111.45;33.63;;;;;;;5.26;100.00;103786.00;5055239;28;20132;-56
2022/01/18 11:48:14;;;;;;;121.30;35.45;;;;;;;5.28;100.00;103765.19;5073197;28;20400;-54
2022/01/18 11:50:42;;;;;;;114.03;33.10;;;;;;;5.30;100.00;103779.19;5055278;28;20121;-53
2022/01/18 11:53:23;;;;;;;112.00;33.45;;;;;;;5.31;100.00;103778.34;5073107;28;20438;-56
2022/01/18 11:55:48;;;;;;;138.52;36.55;;;;;;;5.33;100.00;103759.28;5072832;28;20124;-56
2022/01/18 11:58:14;;;;;;;128.57;31.90;;;;;;;5.40;100.00;103773.47;5073026;28;20111;-58
2022/01/18 12:00:49;;;;;;;118.80;27.58;;;;;;;5.40;100.00;103774.31;5072984;28;20542;-59
2022/01/18 12:03:17;;;;;;;122.25;30.70;;;;;;;5.44;100.00;103762.25;5054655;28;20037;-55
2022/01/18 12:05:43;;;;;;;92.30;30.25;;;;;;;5.43;100.00;103776.19;5054976;28;20024;-56
2022/01/18 12:08:08;;;;;;;132.98;33.28;;;;;;;5.05;100.00;103691.22;5072768;28;20043;-54
2022/01/18 12:10:34;;;;;;;123.97;31.83;;;;;;;5.44;100.00;103757.03;5072990;28;20032;-57
2022/01/18 12:13:02;;;;;;;122.38;30.70;;;;;;;4.93;100.00;103662.97;5054557;28;20472;-54
2022/01/18 12:15:36;;;;;;;118.75;30.35;;;;;;;5.45;100.00;103754.50;5072582;28;20409;-55
2022/01/18 12:18:21;;;;;;;146.63;30.92;;;;;;;4.89;100.00;103658.50;5072661;28;20025;-56
2022/01/18 12:20:49;;;;;;;123.38;31.13;;;;;;;5.00;100.00;103658.84;5072635;28;20533;-54
2022/01/18 12:23:32;;;;;;;121.80;31.17;;;;;;;5.48;100.00;103744.16;5072673;28;20434;-55
2022/01/18 12:26:29;;;;;;;115.60;29.88;;;;;;;5.49;100.00;103756.34;5072526;28;20035;-56
2022/01/18 12:34:29;;;;;;;145.38;28.95;;;;;;;5.46;100.00;103748.41;5072606;28;20067;-58
2022/01/18 12:36:55;;;;;;;154.35;31.85;;;;;;;5.10;100.00;103681.84;5072377;28;20035;-56